Pagrindinis puslapis
METAR-TAF:

METAR-TAF

Oro uostai :

Formosa, Argentina

platuma: 26-12S, ilguma: 058-14W, Aukštis: 59 m

Dabartinis oras

Ataskaita buvo paskelbta 24 minutes, ne 22:00 UTC
Vėjas 3 kt iš Rytų
Temperatūra 24°C
Drėgmė 74%
Slėgis 1012 hPa
Matomumas 10 km arba daugiau
Išsisklaidę debesys ne aukštis 3000 ft
Apsiniaukę ne aukštis 20000 ft

METAR: SARF 302200Z 09003KT 9999 SCT030 OVC200 24/19 Q1012

Laikas: 19:24 (22:24 UTC)

Prognozė

Ataskaita buvo paskelbta 5 valandos ir 24 minutes, ne 17:00 UTC
Prognozė galioja nuo 30 metu 18 UTC su 31 metu 18 UTC
Vėjas 5 kt iš Šiaurės/Šiaurės Vakarų
Matomumas 10 km arba daugiau
nėra debesų žemiau 1500 m ir nėra kamuolinių lietaus debesų
Tapsmas
nuo 30 metu 22 UTC su 30 metu 24 UTC
Vėjas 10 kt iš Pietvakarių
Tapsmas
nuo 31 metu 03 UTC su 31 metu 05 UTC
Vėjas 10 kt iš Pietų
Matomumas: 8000 m
Apsiniaukę ne aukštis 1000 ft
Su prošvaistėmis ne aukštis 5000 ft
lietus

TAF: SARF 301700Z 3018/3118 34005KT CAVOK TX31/3018Z TN11/3110Z BECMG 3022/3024 23010KT BECMG 3103/3105 18010KT 8000 -RA OVC010 BKN050

Orai ataskaitas ir orų prognozės (METAR, TAF).

turimą stotys yra geltonos ir raudonos taškus žemėlapyje.

Perkelti pele per norėdami pamatyti stoties vardą.

Tada spustelėkite, norėdami matyti oro stebėjimo ir prognozės.

Norėdami pakeisti žemėlapį: spustelėkite ant žalios mygtukų su juodo kryžiaus žemyn,; žalią mygtuką su brūkšneliu, jei norite nutolinti; arba žalių rodyklių gretimoms žemėlapius.


METAR-TAF: